<?xml version="1.0" encoding="UTF-8" standalone="no" ?>
<gpx xmlns="http://www.topografix.com/GPX/1/1" xmlns:xsi="http://www.w3.org/2001/XMLSchema-instance" xsi:schemaLocation="http://www.topografix.com/GPX/1/1 http://www.topografix.com/GPX/1/1/gpx.xsd" version="1.1" creator="VisuGPX - https://www.visugpx.com">
  <metadata>
    <name>Rando plateau d'Orsay (78 et 91)</name>
    <desc><![CDATA[Très belle randonnée de 24 km sur le plateau d'Orsay et la vallée de l'Yvette. 
A retrouver aussi sur [url]http://trekkingzone.wordpress.com[/url]]]></desc>
  </metadata>
  <trk>
    <name><![CDATA[10399191-Orsay]]></name>
    <trkseg>
      <trkpt lat="48.69592" lon="2.16278">
        <ele>82</ele>
        <time>2019-08-19T13:55:48Z</time>
      </trkpt>
      <trkpt lat="48.69689" lon="2.16235">
        <ele>76</ele>
        <time>2019-08-19T13:58:03Z</time>
      </trkpt>
      <trkpt lat="48.69785" lon="2.16329">
        <ele>71</ele>
        <time>2019-08-19T14:00:35Z</time>
      </trkpt>
      <trkpt lat="48.69876" lon="2.16437">
        <ele>65</ele>
        <time>2019-08-19T14:03:10Z</time>
      </trkpt>
      <trkpt lat="48.69986" lon="2.1651">
        <ele>61</ele>
        <time>2019-08-19T14:05:50Z</time>
      </trkpt>
      <trkpt lat="48.69986" lon="2.16582">
        <ele>62</ele>
        <time>2019-08-19T14:06:53Z</time>
      </trkpt>
      <trkpt lat="48.7004" lon="2.16655">
        <ele>62</ele>
        <time>2019-08-19T14:08:30Z</time>
      </trkpt>
      <trkpt lat="48.70026" lon="2.16758">
        <ele>62</ele>
        <time>2019-08-19T14:10:03Z</time>
      </trkpt>
      <trkpt lat="48.7" lon="2.16793">
        <ele>61</ele>
        <time>2019-08-19T14:10:49Z</time>
      </trkpt>
      <trkpt lat="48.70103" lon="2.17252">
        <ele>61</ele>
        <time>2019-08-19T14:17:56Z</time>
      </trkpt>
      <trkpt lat="48.70086" lon="2.17368">
        <ele>63</ele>
        <time>2019-08-19T14:19:41Z</time>
      </trkpt>
      <trkpt lat="48.70032" lon="2.17501">
        <ele>66</ele>
        <time>2019-08-19T14:21:58Z</time>
      </trkpt>
      <trkpt lat="48.70021" lon="2.176">
        <ele>64</ele>
        <time>2019-08-19T14:23:27Z</time>
      </trkpt>
      <trkpt lat="48.69993" lon="2.17707">
        <ele>63</ele>
        <time>2019-08-19T14:25:08Z</time>
      </trkpt>
      <trkpt lat="48.69978" lon="2.1784">
        <ele>62</ele>
        <time>2019-08-19T14:27:07Z</time>
      </trkpt>
      <trkpt lat="48.69976" lon="2.17956">
        <ele>61</ele>
        <time>2019-08-19T14:28:49Z</time>
      </trkpt>
      <trkpt lat="48.69961" lon="2.18059">
        <ele>62</ele>
        <time>2019-08-19T14:30:22Z</time>
      </trkpt>
      <trkpt lat="48.70063" lon="2.18085">
        <ele>72</ele>
        <time>2019-08-19T14:32:40Z</time>
      </trkpt>
      <trkpt lat="48.70075" lon="2.18132">
        <ele>73</ele>
        <time>2019-08-19T14:33:24Z</time>
      </trkpt>
      <trkpt lat="48.70131" lon="2.18021">
        <ele>76</ele>
        <time>2019-08-19T14:35:27Z</time>
      </trkpt>
      <trkpt lat="48.70191" lon="2.17948">
        <ele>79</ele>
        <time>2019-08-19T14:37:10Z</time>
      </trkpt>
      <trkpt lat="48.70225" lon="2.18025">
        <ele>81</ele>
        <time>2019-08-19T14:38:32Z</time>
      </trkpt>
      <trkpt lat="48.70216" lon="2.18115">
        <ele>83</ele>
        <time>2019-08-19T14:39:52Z</time>
      </trkpt>
      <trkpt lat="48.70341" lon="2.18111">
        <ele>91</ele>
        <time>2019-08-19T14:42:39Z</time>
      </trkpt>
      <trkpt lat="48.70442" lon="2.17961">
        <ele>117</ele>
        <time>2019-08-19T14:45:47Z</time>
      </trkpt>
      <trkpt lat="48.70468" lon="2.17884">
        <ele>128</ele>
        <time>2019-08-19T14:47:03Z</time>
      </trkpt>
      <trkpt lat="48.70533" lon="2.17957">
        <ele>145</ele>
        <time>2019-08-19T14:48:51Z</time>
      </trkpt>
      <trkpt lat="48.70598" lon="2.17974">
        <ele>156</ele>
        <time>2019-08-19T14:50:19Z</time>
      </trkpt>
      <trkpt lat="48.70662" lon="2.17564">
        <ele>156</ele>
        <time>2019-08-19T14:56:31Z</time>
      </trkpt>
      <trkpt lat="48.70625" lon="2.17409">
        <ele>145</ele>
        <time>2019-08-19T14:58:56Z</time>
      </trkpt>
      <trkpt lat="48.70662" lon="2.17289">
        <ele>152</ele>
        <time>2019-08-19T15:00:52Z</time>
      </trkpt>
      <trkpt lat="48.7067" lon="2.1701">
        <ele>153</ele>
        <time>2019-08-19T15:04:58Z</time>
      </trkpt>
      <trkpt lat="48.70687" lon="2.1683">
        <ele>155</ele>
        <time>2019-08-19T15:07:38Z</time>
      </trkpt>
      <trkpt lat="48.70687" lon="2.1668">
        <ele>149</ele>
        <time>2019-08-19T15:09:50Z</time>
      </trkpt>
      <trkpt lat="48.7067" lon="2.16491">
        <ele>145</ele>
        <time>2019-08-19T15:12:38Z</time>
      </trkpt>
      <trkpt lat="48.70657" lon="2.16289">
        <ele>142</ele>
        <time>2019-08-19T15:15:37Z</time>
      </trkpt>
      <trkpt lat="48.7062" lon="2.16135">
        <ele>136</ele>
        <time>2019-08-19T15:18:01Z</time>
      </trkpt>
      <trkpt lat="48.70577" lon="2.1601">
        <ele>134</ele>
        <time>2019-08-19T15:20:06Z</time>
      </trkpt>
      <trkpt lat="48.70555" lon="2.15911">
        <ele>133</ele>
        <time>2019-08-19T15:21:38Z</time>
      </trkpt>
      <trkpt lat="48.70501" lon="2.15813">
        <ele>121</ele>
        <time>2019-08-19T15:23:30Z</time>
      </trkpt>
      <trkpt lat="48.70464" lon="2.15731">
        <ele>118</ele>
        <time>2019-08-19T15:24:58Z</time>
      </trkpt>
      <trkpt lat="48.7047" lon="2.15868">
        <ele>111</ele>
        <time>2019-08-19T15:26:58Z</time>
      </trkpt>
      <trkpt lat="48.70371" lon="2.15881">
        <ele>93</ele>
        <time>2019-08-19T15:29:11Z</time>
      </trkpt>
      <trkpt lat="48.70337" lon="2.15903">
        <ele>88</ele>
        <time>2019-08-19T15:30:00Z</time>
      </trkpt>
      <trkpt lat="48.70298" lon="2.15708">
        <ele>88</ele>
        <time>2019-08-19T15:33:00Z</time>
      </trkpt>
      <trkpt lat="48.70208" lon="2.1572">
        <ele>77</ele>
        <time>2019-08-19T15:35:00Z</time>
      </trkpt>
      <trkpt lat="48.70145" lon="2.15673">
        <ele>74</ele>
        <time>2019-08-19T15:36:34Z</time>
      </trkpt>
      <trkpt lat="48.70029" lon="2.15665">
        <ele>66</ele>
        <time>2019-08-19T15:39:09Z</time>
      </trkpt>
      <trkpt lat="48.69947" lon="2.15733">
        <ele>62</ele>
        <time>2019-08-19T15:41:14Z</time>
      </trkpt>
      <trkpt lat="48.69916" lon="2.15772">
        <ele>62</ele>
        <time>2019-08-19T15:42:08Z</time>
      </trkpt>
      <trkpt lat="48.69825" lon="2.15788">
        <ele>61</ele>
        <time>2019-08-19T15:44:10Z</time>
      </trkpt>
      <trkpt lat="48.6972" lon="2.15891">
        <ele>62</ele>
        <time>2019-08-19T15:46:57Z</time>
      </trkpt>
      <trkpt lat="48.69677" lon="2.15908">
        <ele>64</ele>
        <time>2019-08-19T15:47:56Z</time>
      </trkpt>
      <trkpt lat="48.69663" lon="2.1599">
        <ele>66</ele>
        <time>2019-08-19T15:49:11Z</time>
      </trkpt>
      <trkpt lat="48.69595" lon="2.16003">
        <ele>71</ele>
        <time>2019-08-19T15:50:42Z</time>
      </trkpt>
      <trkpt lat="48.69507" lon="2.15977">
        <ele>79</ele>
        <time>2019-08-19T15:52:42Z</time>
      </trkpt>
      <trkpt lat="48.69465" lon="2.159">
        <ele>75</ele>
        <time>2019-08-19T15:54:10Z</time>
      </trkpt>
      <trkpt lat="48.69405" lon="2.1584">
        <ele>77</ele>
        <time>2019-08-19T15:55:46Z</time>
      </trkpt>
      <trkpt lat="48.69362" lon="2.15836">
        <ele>79</ele>
        <time>2019-08-19T15:56:43Z</time>
      </trkpt>
      <trkpt lat="48.6934" lon="2.15789">
        <ele>78</ele>
        <time>2019-08-19T15:57:34Z</time>
      </trkpt>
      <trkpt lat="48.69306" lon="2.15806">
        <ele>80</ele>
        <time>2019-08-19T15:58:22Z</time>
      </trkpt>
      <trkpt lat="48.69274" lon="2.15733">
        <ele>79</ele>
        <time>2019-08-19T15:59:39Z</time>
      </trkpt>
      <trkpt lat="48.69209" lon="2.15651">
        <ele>79</ele>
        <time>2019-08-19T16:01:32Z</time>
      </trkpt>
      <trkpt lat="48.69144" lon="2.15531">
        <ele>78</ele>
        <time>2019-08-19T16:03:49Z</time>
      </trkpt>
      <trkpt lat="48.69138" lon="2.15467">
        <ele>77</ele>
        <time>2019-08-19T16:04:45Z</time>
      </trkpt>
      <trkpt lat="48.69167" lon="2.15424">
        <ele>76</ele>
        <time>2019-08-19T16:05:40Z</time>
      </trkpt>
      <trkpt lat="48.6913" lon="2.15286">
        <ele>80</ele>
        <time>2019-08-19T16:07:51Z</time>
      </trkpt>
      <trkpt lat="48.69096" lon="2.15235">
        <ele>81</ele>
        <time>2019-08-19T16:08:55Z</time>
      </trkpt>
      <trkpt lat="48.69051" lon="2.15274">
        <ele>80</ele>
        <time>2019-08-19T16:10:04Z</time>
      </trkpt>
      <trkpt lat="48.68998" lon="2.15273">
        <ele>80</ele>
        <time>2019-08-19T16:11:15Z</time>
      </trkpt>
      <trkpt lat="48.68961" lon="2.1514">
        <ele>81</ele>
        <time>2019-08-19T16:13:22Z</time>
      </trkpt>
      <trkpt lat="48.68913" lon="2.15131">
        <ele>79</ele>
        <time>2019-08-19T16:14:26Z</time>
      </trkpt>
      <trkpt lat="48.68842" lon="2.15131">
        <ele>80</ele>
        <time>2019-08-19T16:16:01Z</time>
      </trkpt>
      <trkpt lat="48.68794" lon="2.15174">
        <ele>83</ele>
        <time>2019-08-19T16:17:15Z</time>
      </trkpt>
      <trkpt lat="48.68771" lon="2.15226">
        <ele>85</ele>
        <time>2019-08-19T16:18:11Z</time>
      </trkpt>
      <trkpt lat="48.68782" lon="2.1529">
        <ele>85</ele>
        <time>2019-08-19T16:19:09Z</time>
      </trkpt>
      <trkpt lat="48.68746" lon="2.15359">
        <ele>88</ele>
        <time>2019-08-19T16:20:26Z</time>
      </trkpt>
      <trkpt lat="48.68805" lon="2.15436">
        <ele>90</ele>
        <time>2019-08-19T16:22:10Z</time>
      </trkpt>
      <trkpt lat="48.6861" lon="2.15586">
        <ele>117</ele>
        <time>2019-08-19T16:27:02Z</time>
      </trkpt>
      <trkpt lat="48.68581" lon="2.15646">
        <ele>128</ele>
        <time>2019-08-19T16:28:08Z</time>
      </trkpt>
      <trkpt lat="48.68513" lon="2.15706">
        <ele>143</ele>
        <time>2019-08-19T16:29:53Z</time>
      </trkpt>
      <trkpt lat="48.68431" lon="2.15599">
        <ele>145</ele>
        <time>2019-08-19T16:32:17Z</time>
      </trkpt>
      <trkpt lat="48.68357" lon="2.15518">
        <ele>149</ele>
        <time>2019-08-19T16:34:19Z</time>
      </trkpt>
      <trkpt lat="48.68295" lon="2.15475">
        <ele>148</ele>
        <time>2019-08-19T16:35:50Z</time>
      </trkpt>
      <trkpt lat="48.68201" lon="2.15436">
        <ele>149</ele>
        <time>2019-08-19T16:38:00Z</time>
      </trkpt>
      <trkpt lat="48.68102" lon="2.15372">
        <ele>148</ele>
        <time>2019-08-19T16:40:24Z</time>
      </trkpt>
      <trkpt lat="48.68026" lon="2.1532">
        <ele>144</ele>
        <time>2019-08-19T16:42:15Z</time>
      </trkpt>
      <trkpt lat="48.67941" lon="2.15299">
        <ele>135</ele>
        <time>2019-08-19T16:44:10Z</time>
      </trkpt>
      <trkpt lat="48.67893" lon="2.15256">
        <ele>127</ele>
        <time>2019-08-19T16:45:24Z</time>
      </trkpt>
      <trkpt lat="48.67793" lon="2.15145">
        <ele>138</ele>
        <time>2019-08-19T16:48:10Z</time>
      </trkpt>
      <trkpt lat="48.67706" lon="2.15046">
        <ele>145</ele>
        <time>2019-08-19T16:50:35Z</time>
      </trkpt>
      <trkpt lat="48.67646" lon="2.14939">
        <ele>148</ele>
        <time>2019-08-19T16:52:39Z</time>
      </trkpt>
      <trkpt lat="48.67618" lon="2.14887">
        <ele>149</ele>
        <time>2019-08-19T16:53:38Z</time>
      </trkpt>
      <trkpt lat="48.67737" lon="2.14681">
        <ele>149</ele>
        <time>2019-08-19T16:57:39Z</time>
      </trkpt>
      <trkpt lat="48.67796" lon="2.14514">
        <ele>155</ele>
        <time>2019-08-19T17:00:26Z</time>
      </trkpt>
      <trkpt lat="48.67677" lon="2.14428">
        <ele>160</ele>
        <time>2019-08-19T17:03:22Z</time>
      </trkpt>
      <trkpt lat="48.67586" lon="2.14274">
        <ele>157</ele>
        <time>2019-08-19T17:06:24Z</time>
      </trkpt>
      <trkpt lat="48.67619" lon="2.14169">
        <ele>147</ele>
        <time>2019-08-19T17:08:06Z</time>
      </trkpt>
      <trkpt lat="48.67718" lon="2.141">
        <ele>131</ele>
        <time>2019-08-19T17:10:32Z</time>
      </trkpt>
      <trkpt lat="48.67783" lon="2.1404">
        <ele>138</ele>
        <time>2019-08-19T17:12:13Z</time>
      </trkpt>
      <trkpt lat="48.67811" lon="2.13967">
        <ele>149</ele>
        <time>2019-08-19T17:13:28Z</time>
      </trkpt>
      <trkpt lat="48.67851" lon="2.13937">
        <ele>147</ele>
        <time>2019-08-19T17:14:27Z</time>
      </trkpt>
      <trkpt lat="48.67899" lon="2.14023">
        <ele>134</ele>
        <time>2019-08-19T17:16:07Z</time>
      </trkpt>
      <trkpt lat="48.67947" lon="2.14113">
        <ele>119</ele>
        <time>2019-08-19T17:17:48Z</time>
      </trkpt>
      <trkpt lat="48.68098" lon="2.14027">
        <ele>123</ele>
        <time>2019-08-19T17:21:24Z</time>
      </trkpt>
      <trkpt lat="48.68287" lon="2.13974">
        <ele>138</ele>
        <time>2019-08-19T17:25:40Z</time>
      </trkpt>
      <trkpt lat="48.68389" lon="2.13991">
        <ele>129</ele>
        <time>2019-08-19T17:27:57Z</time>
      </trkpt>
      <trkpt lat="48.6848" lon="2.13815">
        <ele>125</ele>
        <time>2019-08-19T17:31:14Z</time>
      </trkpt>
      <trkpt lat="48.68579" lon="2.13747">
        <ele>119</ele>
        <time>2019-08-19T17:33:39Z</time>
      </trkpt>
      <trkpt lat="48.68607" lon="2.13721">
        <ele>127</ele>
        <time>2019-08-19T17:34:23Z</time>
      </trkpt>
      <trkpt lat="48.68596" lon="2.13584">
        <ele>131</ele>
        <time>2019-08-19T17:36:25Z</time>
      </trkpt>
      <trkpt lat="48.6863" lon="2.13425">
        <ele>136</ele>
        <time>2019-08-19T17:38:52Z</time>
      </trkpt>
      <trkpt lat="48.68642" lon="2.13344">
        <ele>139</ele>
        <time>2019-08-19T17:40:05Z</time>
      </trkpt>
      <trkpt lat="48.68746" lon="2.13314">
        <ele>164</ele>
        <time>2019-08-19T17:42:26Z</time>
      </trkpt>
      <trkpt lat="48.68783" lon="2.13708">
        <ele>171</ele>
        <time>2019-08-19T17:48:17Z</time>
      </trkpt>
      <trkpt lat="48.68956" lon="2.13621">
        <ele>174</ele>
        <time>2019-08-19T17:52:20Z</time>
      </trkpt>
      <trkpt lat="48.69126" lon="2.13514">
        <ele>171</ele>
        <time>2019-08-19T17:56:26Z</time>
      </trkpt>
      <trkpt lat="48.69247" lon="2.13449">
        <ele>170</ele>
        <time>2019-08-19T17:59:17Z</time>
      </trkpt>
      <trkpt lat="48.69352" lon="2.13625">
        <ele>147</ele>
        <time>2019-08-19T18:02:46Z</time>
      </trkpt>
      <trkpt lat="48.69432" lon="2.13522">
        <ele>120</ele>
        <time>2019-08-19T18:05:06Z</time>
      </trkpt>
      <trkpt lat="48.69626" lon="2.13551">
        <ele>88</ele>
        <time>2019-08-19T18:09:26Z</time>
      </trkpt>
      <trkpt lat="48.69663" lon="2.13645">
        <ele>85</ele>
        <time>2019-08-19T18:11:03Z</time>
      </trkpt>
      <trkpt lat="48.69776" lon="2.13684">
        <ele>75</ele>
        <time>2019-08-19T18:13:37Z</time>
      </trkpt>
      <trkpt lat="48.69807" lon="2.13731">
        <ele>73</ele>
        <time>2019-08-19T18:14:36Z</time>
      </trkpt>
      <trkpt lat="48.69855" lon="2.13684">
        <ele>70</ele>
        <time>2019-08-19T18:15:52Z</time>
      </trkpt>
      <trkpt lat="48.69909" lon="2.13684">
        <ele>68</ele>
        <time>2019-08-19T18:17:04Z</time>
      </trkpt>
      <trkpt lat="48.69892" lon="2.1359">
        <ele>67</ele>
        <time>2019-08-19T18:18:30Z</time>
      </trkpt>
      <trkpt lat="48.69952" lon="2.13517">
        <ele>67</ele>
        <time>2019-08-19T18:20:13Z</time>
      </trkpt>
      <trkpt lat="48.70014" lon="2.1362">
        <ele>66</ele>
        <time>2019-08-19T18:22:16Z</time>
      </trkpt>
      <trkpt lat="48.70079" lon="2.1371">
        <ele>68</ele>
        <time>2019-08-19T18:24:13Z</time>
      </trkpt>
      <trkpt lat="48.70062" lon="2.13796">
        <ele>68</ele>
        <time>2019-08-19T18:25:32Z</time>
      </trkpt>
      <trkpt lat="48.70099" lon="2.13924">
        <ele>70</ele>
        <time>2019-08-19T18:27:35Z</time>
      </trkpt>
      <trkpt lat="48.70082" lon="2.14015">
        <ele>71</ele>
        <time>2019-08-19T18:28:58Z</time>
      </trkpt>
      <trkpt lat="48.70053" lon="2.14212">
        <ele>66</ele>
        <time>2019-08-19T18:31:56Z</time>
      </trkpt>
      <trkpt lat="48.70025" lon="2.14315">
        <ele>65</ele>
        <time>2019-08-19T18:33:34Z</time>
      </trkpt>
      <trkpt lat="48.69969" lon="2.14452">
        <ele>65</ele>
        <time>2019-08-19T18:35:56Z</time>
      </trkpt>
      <trkpt lat="48.69934" lon="2.14735">
        <ele>65</ele>
        <time>2019-08-19T18:40:10Z</time>
      </trkpt>
      <trkpt lat="48.69897" lon="2.14924">
        <ele>66</ele>
        <time>2019-08-19T18:43:04Z</time>
      </trkpt>
      <trkpt lat="48.69914" lon="2.15031">
        <ele>67</ele>
        <time>2019-08-19T18:44:40Z</time>
      </trkpt>
      <trkpt lat="48.69861" lon="2.15069">
        <ele>62</ele>
        <time>2019-08-19T18:45:59Z</time>
      </trkpt>
      <trkpt lat="48.69835" lon="2.15336">
        <ele>61</ele>
        <time>2019-08-19T18:49:56Z</time>
      </trkpt>
      <trkpt lat="48.69781" lon="2.15541">
        <ele>62</ele>
        <time>2019-08-19T18:53:11Z</time>
      </trkpt>
      <trkpt lat="48.69795" lon="2.15704">
        <ele>61</ele>
        <time>2019-08-19T18:55:36Z</time>
      </trkpt>
      <trkpt lat="48.69969" lon="2.15925">
        <ele>60</ele>
        <time>2019-08-19T19:00:39Z</time>
      </trkpt>
      <trkpt lat="48.70001" lon="2.16049">
        <ele>60</ele>
        <time>2019-08-19T19:02:36Z</time>
      </trkpt>
      <trkpt lat="48.70011" lon="2.1618">
        <ele>60</ele>
        <time>2019-08-19T19:04:32Z</time>
      </trkpt>
      <trkpt lat="48.69993" lon="2.16283">
        <ele>60</ele>
        <time>2019-08-19T19:06:06Z</time>
      </trkpt>
    </trkseg>
  </trk>
</gpx>